createdAt,value
2022-12-08T11:53:21.154Z,98976.75
2022-12-08T11:56:46.983Z,98963.38
2022-12-08T11:59:45.705Z,98975.34
2022-12-08T12:02:43.563Z,98965.91
2022-12-08T12:06:09.101Z,98982.56
2022-12-08T12:10:09.753Z,98990.72
2022-12-08T12:13:50.183Z,98970.78
2022-12-08T12:17:33.767Z,98987.44
2022-12-08T12:20:37.282Z,98984.22
2022-12-08T12:23:47.269Z,98984.13
2022-12-08T12:26:36.925Z,98980.75
2022-12-08T12:29:55.322Z,98968.75
2022-12-08T12:33:01.199Z,98970.78
2022-12-08T12:35:50.312Z,98960.00
2022-12-08T12:39:00.862Z,98968.78
2022-12-08T12:41:51.321Z,98956.41
2022-12-08T12:44:39.308Z,98958.06
2022-12-08T12:47:55.826Z,98964.38
2022-12-08T12:50:46.111Z,98963.34
2022-12-08T12:53:34.065Z,98966.06
2022-12-08T12:57:01.203Z,98975.97
2022-12-08T13:02:57.914Z,98965.97
2022-12-08T13:05:52.652Z,98967.72
2022-12-08T13:08:48.808Z,98971.13
2022-12-08T13:11:56.713Z,98966.56
2022-12-08T13:14:47.017Z,98968.47
2022-12-08T13:17:39.259Z,98974.69
2022-12-08T13:20:25.425Z,98967.16
2022-12-08T13:23:12.781Z,98970.03
2022-12-08T13:26:18.125Z,98962.34
2022-12-08T13:29:12.536Z,98975.38
2022-12-08T13:32:02.004Z,98975.88
2022-12-08T13:34:55.099Z,98964.22
2022-12-08T13:37:54.339Z,98963.78
2022-12-08T13:40:41.901Z,98954.03
2022-12-08T13:44:20.500Z,98972.59
2022-12-08T13:47:31.521Z,98970.38
2022-12-08T13:51:16.154Z,98964.75
2022-12-08T13:57:05.180Z,98973.03
2022-12-08T13:59:48.604Z,98968.63
2022-12-08T14:02:35.663Z,98970.75
2022-12-08T14:05:41.141Z,98964.41
2022-12-08T14:09:00.152Z,98970.94
2022-12-08T14:11:42.374Z,98968.59
2022-12-08T14:15:01.111Z,98978.25
2022-12-08T14:17:39.306Z,98979.56
2022-12-08T14:20:27.254Z,98993.19
2022-12-08T14:23:17.283Z,98987.81
2022-12-08T14:26:04.874Z,98994.81
2022-12-08T14:28:49.774Z,98993.72
2022-12-08T14:31:34.976Z,98993.72
2022-12-08T14:34:20.174Z,99000.84
2022-12-08T14:37:05.932Z,98996.78
2022-12-08T14:39:52.136Z,98995.34
2022-12-08T14:42:51.209Z,98989.03
2022-12-08T14:45:38.818Z,98997.41
2022-12-08T14:48:39.002Z,98997.41
2022-12-08T14:51:30.101Z,98995.38
2022-12-08T14:54:18.206Z,98989.06
2022-12-08T14:57:03.730Z,98987.94
2022-12-08T14:59:49.581Z,98997.78
2022-12-08T15:02:43.451Z,98995.25
2022-12-08T15:05:31.351Z,98994.00
2022-12-08T15:08:16.761Z,98990.34
2022-12-08T15:11:38.863Z,98992.28
2022-12-08T15:14:35.591Z,98996.34
2022-12-08T15:17:35.601Z,99000.81
2022-12-08T15:20:39.964Z,98997.66
2022-12-08T15:23:27.992Z,98999.56
2022-12-08T15:26:23.792Z,98991.81
2022-12-08T15:29:27.166Z,98992.44
2022-12-08T15:32:20.054Z,98993.41
2022-12-08T15:35:05.239Z,98996.56
2022-12-08T15:37:50.086Z,99000.22
2022-12-08T15:40:34.914Z,99005.28
2022-12-08T15:43:20.510Z,98992.31
2022-12-08T15:46:05.581Z,98996.41
2022-12-08T15:48:54.915Z,98990.44
2022-12-08T15:51:42.953Z,98986.16
2022-12-08T15:54:27.733Z,98981.25
2022-12-08T15:57:53.410Z,98992.66
2022-12-08T16:09:51.439Z,98981.91
2022-12-08T16:16:02.679Z,98977.00
2022-12-08T16:18:49.069Z,98979.53
2022-12-08T16:22:23.812Z,98978.91
2022-12-08T16:24:38.991Z,98979.53
2022-12-08T16:30:33.303Z,98984.59
2022-12-08T16:33:18.324Z,98980.81
2022-12-08T16:36:03.287Z,98974.66
2022-12-08T16:38:48.179Z,98973.22
2022-12-08T16:41:51.738Z,98978.28
2022-12-08T16:44:41.396Z,98978.28
2022-12-08T16:47:26.297Z,98969.44
2022-12-08T16:50:12.590Z,98979.56
2022-12-08T16:53:03.889Z,98977.03
2022-12-08T16:55:49.369Z,98972.13
2022-12-08T16:58:34.169Z,98963.91
2022-12-08T17:01:19.112Z,98965.94
2022-12-08T17:07:08.714Z,98971.34
2022-12-08T17:09:53.723Z,98959.47
2022-12-08T17:12:38.518Z,98962.63
2022-12-08T17:15:25.092Z,98963.41
2022-12-08T17:18:10.070Z,98958.53
2022-12-08T17:20:54.987Z,98957.88
2022-12-08T17:23:41.180Z,98964.53
2022-12-08T17:26:25.925Z,98955.72
2022-12-08T17:29:10.920Z,98960.91
2022-12-08T17:31:55.903Z,98958.56
2022-12-08T17:34:40.920Z,98949.06
2022-12-08T17:37:26.080Z,98956.34
2022-12-08T17:41:01.507Z,98965.06
2022-12-08T17:43:46.870Z,98956.03
2022-12-08T17:46:31.369Z,98955.06
2022-12-08T17:49:19.129Z,98951.78
2022-12-08T17:52:08.755Z,98947.47
2022-12-08T17:54:53.502Z,98956.19
2022-12-08T17:57:38.422Z,98959.19
2022-12-08T18:00:23.234Z,98959.03
2022-12-08T18:03:07.809Z,98944.50
2022-12-08T18:05:52.741Z,98952.53
2022-12-08T18:08:38.249Z,98950.19
2022-12-08T18:11:24.107Z,98947.97
2022-12-08T18:14:09.761Z,98960.63
2022-12-08T18:16:54.354Z,98947.50
2022-12-08T18:19:39.114Z,98951.44
2022-12-08T18:22:23.830Z,98946.56
2022-12-08T18:25:09.887Z,98953.97
2022-12-08T18:27:54.726Z,98940.56
2022-12-08T18:30:40.265Z,98941.50
2022-12-08T18:33:25.813Z,98949.25
2022-12-08T18:36:13.557Z,98938.03
2022-12-08T18:38:58.248Z,98939.28
2022-12-08T18:41:43.273Z,98947.66
2022-12-08T18:44:28.119Z,98945.75
2022-12-08T18:47:12.725Z,98945.16
2022-12-08T18:49:57.580Z,98949.41
2022-12-08T18:52:42.301Z,98940.56
2022-12-08T18:55:27.060Z,98932.19
2022-12-08T18:58:13.772Z,98937.75
2022-12-08T19:00:58.712Z,98935.22
2022-12-08T19:03:58.492Z,98941.38
2022-12-08T19:06:49.811Z,98938.69
2022-12-08T19:09:34.640Z,98939.78
2022-12-08T19:12:19.458Z,98941.22
2022-12-08T19:15:04.988Z,98937.09
2022-12-08T19:17:50.040Z,98934.72
2022-12-08T19:20:35.194Z,98951.31
2022-12-08T19:23:20.120Z,98947.22
2022-12-08T19:26:05.479Z,98944.34
2022-12-08T19:28:50.126Z,98946.09
2022-12-08T19:31:35.060Z,98953.38
2022-12-08T19:34:19.913Z,98957.50
2022-12-08T19:37:06.171Z,98951.81
2022-12-08T19:40:09.572Z,98945.00
2022-12-08T19:43:12.969Z,98945.94
2022-12-08T19:45:57.934Z,98941.22
2022-12-08T19:48:43.313Z,98948.31
2022-12-08T19:51:28.415Z,98948.31
2022-12-08T19:54:13.022Z,98955.75
2022-12-08T19:56:58.300Z,98957.00
2022-12-08T19:59:43.230Z,98954.34
2022-12-08T20:02:28.793Z,98945.34
2022-12-08T20:05:14.567Z,98956.06
2022-12-08T20:07:59.778Z,98958.75
2022-12-08T20:10:45.222Z,98955.91
2022-12-08T20:13:44.838Z,98946.91
2022-12-08T20:16:29.612Z,98949.09
2022-12-08T20:19:15.018Z,98949.72
2022-12-08T20:22:01.885Z,98953.22
2022-12-08T20:24:51.905Z,98953.38
2022-12-08T20:27:41.418Z,98953.06
2022-12-08T20:30:26.179Z,98951.13
2022-12-08T20:33:13.146Z,98955.25
2022-12-08T20:36:04.435Z,98944.34
2022-12-08T20:38:51.796Z,98940.25
2022-12-08T20:41:39.307Z,98940.56
2022-12-08T20:44:24.745Z,98949.59
2022-12-08T20:47:11.259Z,98960.16
2022-12-08T20:49:56.309Z,98957.16
2022-12-08T20:52:41.222Z,98961.09
2022-12-08T20:55:26.071Z,98966.28
2022-12-08T20:58:11.506Z,98966.78
2022-12-08T21:00:56.407Z,98967.25
2022-12-08T21:03:42.314Z,98963.75
2022-12-08T21:06:27.480Z,98968.47
2022-12-08T21:09:12.559Z,98968.78
2022-12-08T21:11:57.318Z,98976.06
2022-12-08T21:14:42.118Z,98979.38
2022-12-08T21:17:27.839Z,98976.53
2022-12-08T21:20:13.027Z,98968.16
2022-12-08T21:22:59.361Z,98972.72
2022-12-08T21:26:05.051Z,98968.28
2022-12-08T21:28:49.760Z,98960.25
2022-12-08T21:31:36.570Z,98961.81
2022-12-08T21:34:21.904Z,98964.53
2022-12-08T21:37:06.793Z,98957.72
2022-12-08T21:39:51.916Z,98952.00
2022-12-08T21:42:46.177Z,98957.06
2022-12-08T21:45:33.303Z,98956.31
2022-12-08T21:48:18.290Z,98942.56
2022-12-08T21:51:04.841Z,98949.81
2022-12-08T21:53:50.219Z,98945.88
2022-12-08T21:56:35.169Z,98946.50
2022-12-08T21:59:20.843Z,98941.44
2022-12-08T22:02:09.936Z,98939.22
2022-12-08T22:04:55.453Z,98934.47
2022-12-08T22:07:40.815Z,98928.00
2022-12-08T22:10:26.130Z,98923.88
2022-12-08T22:13:10.911Z,98930.22
2022-12-08T22:16:01.732Z,98925.34
2022-12-08T22:18:47.111Z,98924.69
2022-12-08T22:21:32.372Z,98921.34
2022-12-08T22:24:17.166Z,98913.31
2022-12-08T22:27:02.273Z,98911.91
2022-12-08T22:29:47.201Z,98910.00
2022-12-08T22:32:33.131Z,98908.91
2022-12-08T22:35:18.293Z,98901.31
2022-12-08T22:38:03.226Z,98913.03
2022-12-08T22:40:48.113Z,98908.59
2022-12-08T22:43:33.206Z,98896.72
2022-12-08T22:46:25.283Z,98905.72
2022-12-08T22:49:11.239Z,98904.13
2022-12-08T22:51:56.350Z,98903.19
2022-12-08T22:54:41.450Z,98908.09
2022-12-08T22:57:27.864Z,98907.94
2022-12-08T23:00:13.301Z,98907.94
2022-12-08T23:02:58.279Z,98907.13
2022-12-08T23:05:43.033Z,98900.50
2022-12-08T23:08:28.677Z,98906.03
2022-12-08T23:11:13.938Z,98911.09
2022-12-08T23:14:01.678Z,98911.41
2022-12-08T23:16:46.697Z,98907.47
2022-12-08T23:19:31.420Z,98909.06
2022-12-08T23:22:16.534Z,98902.09
2022-12-08T23:25:01.363Z,98895.44
2022-12-08T23:27:46.552Z,98899.06
2022-12-08T23:30:31.612Z,98893.56
2022-12-08T23:33:16.561Z,98902.22
2022-12-08T23:36:01.846Z,98898.47
2022-12-08T23:38:47.673Z,98898.13
2022-12-08T23:41:32.614Z,98888.50
2022-12-08T23:44:17.379Z,98891.47
2022-12-08T23:47:02.670Z,98883.28
2022-12-08T23:49:47.369Z,98890.69
2022-12-08T23:52:32.651Z,98887.84
2022-12-08T23:55:17.630Z,98885.50
2022-12-08T23:58:02.621Z,98881.84
